createdAt,value
2018-12-15T00:00:29.199Z,-939.57
2018-12-15T00:01:29.214Z,-941.96
2018-12-15T00:02:29.303Z,-940.70
2018-12-15T00:03:29.361Z,-933.49
2018-12-15T00:04:29.451Z,-938.42
2018-12-15T00:05:29.608Z,-937.39
2018-12-15T00:06:29.576Z,-935.97
2018-12-15T00:07:29.674Z,-939.58
2018-12-15T00:08:29.754Z,-937.22
2018-12-15T00:09:29.812Z,-935.54
2018-12-15T00:10:29.908Z,-938.26
2018-12-15T00:11:29.963Z,-940.67
2018-12-15T00:12:30.070Z,-938.32
2018-12-15T00:13:30.147Z,-940.39
2018-12-15T00:14:30.247Z,-940.97
2018-12-15T00:15:30.273Z,-936.11
2018-12-15T00:16:30.329Z,-935.15
2018-12-15T00:17:30.437Z,-939.29
2018-12-15T00:18:30.504Z,-936.55
2018-12-15T00:19:30.569Z,-942.27
2018-12-15T00:20:30.667Z,-941.71
2018-12-15T00:21:30.746Z,-939.42
2018-12-15T00:22:30.924Z,-938.74
2018-12-15T00:23:30.869Z,-939.89
2018-12-15T00:24:30.934Z,-945.91
2018-12-15T00:25:31.019Z,-943.93
2018-12-15T00:26:31.075Z,-941.63
2018-12-15T00:27:31.398Z,-941.45
2018-12-15T00:28:31.255Z,-938.76
2018-12-15T00:29:31.318Z,-939.28
2018-12-15T00:30:31.506Z,-941.45
2018-12-15T00:31:31.441Z,-940.02
2018-12-15T00:32:31.529Z,-941.42
2018-12-15T00:33:31.622Z,-944.23
2018-12-15T00:34:31.687Z,-939.62
2018-12-15T00:35:31.782Z,-939.23
2018-12-15T00:36:31.812Z,-934.77
2018-12-15T00:37:31.903Z,-942.58
2018-12-15T00:38:32.010Z,-941.56
2018-12-15T00:39:32.015Z,-941.05
2018-12-15T00:40:32.124Z,-943.43
2018-12-15T00:41:32.169Z,-940.59
2018-12-15T00:42:32.278Z,-943.01
2018-12-15T00:43:32.362Z,-942.17
2018-12-15T00:44:32.410Z,-940.05
2018-12-15T00:45:32.504Z,-936.76
2018-12-15T00:46:32.575Z,-940.82
2018-12-15T00:47:32.657Z,-937.44
2018-12-15T00:48:32.728Z,-943.23
2018-12-15T00:49:32.795Z,-940.85
2018-12-15T00:50:32.915Z,-944.76
2018-12-15T00:51:32.965Z,-935.52
2018-12-15T00:52:33.057Z,-940.53
2018-12-15T00:53:33.103Z,-942.90
2018-12-15T00:54:33.199Z,-939.47
2018-12-15T00:55:33.420Z,-938.48
2018-12-15T00:56:33.339Z,-937.16
2018-12-15T00:57:33.430Z,-940.26
2018-12-15T00:58:33.487Z,-941.75
2018-12-15T00:59:33.582Z,-936.44
2018-12-15T01:00:33.680Z,-943.97
2018-12-15T01:01:33.723Z,-944.89
2018-12-15T01:02:33.817Z,-937.88
2018-12-15T01:03:33.956Z,-944.56
2018-12-15T01:04:33.960Z,-942.99
2018-12-15T01:05:34.046Z,-942.12
2018-12-15T01:06:34.095Z,-943.10
2018-12-15T01:07:35.201Z,-939.74
2018-12-15T01:08:34.281Z,-943.61
2018-12-15T01:09:34.364Z,-937.36
2018-12-15T01:10:34.421Z,-938.74
2018-12-15T01:11:34.534Z,-941.11
2018-12-15T01:12:34.558Z,-941.31
2018-12-15T01:13:34.636Z,-942.02
2018-12-15T01:14:34.719Z,-939.47
2018-12-15T01:15:34.783Z,-942.38
2018-12-15T01:16:34.839Z,-942.19
2018-12-15T01:17:34.945Z,-941.52
2018-12-15T01:18:35.028Z,-942.15
2018-12-15T01:19:35.144Z,-939.90
2018-12-15T01:20:35.134Z,-939.59
2018-12-15T01:21:35.209Z,-939.49
2018-12-15T01:22:35.278Z,-934.72
2018-12-15T01:23:35.365Z,-938.77
2018-12-15T01:24:35.414Z,-940.32
2018-12-15T01:25:35.515Z,-938.92
2018-12-15T01:26:35.568Z,-938.40
2018-12-15T01:27:35.723Z,-935.37
2018-12-15T01:28:35.744Z,-935.52
2018-12-15T01:29:35.814Z,-932.33
2018-12-15T01:30:35.903Z,-940.25
2018-12-15T01:31:35.938Z,-936.25
2018-12-15T01:32:36.024Z,-931.04
2018-12-15T01:33:36.084Z,-930.12
2018-12-15T01:34:36.175Z,-936.01
2018-12-15T01:35:36.283Z,-937.40
2018-12-15T01:36:36.428Z,-935.32
2018-12-15T01:37:36.406Z,-943.53
2018-12-15T01:38:36.463Z,-936.59
2018-12-15T01:39:36.552Z,-938.33
2018-12-15T01:40:36.653Z,-935.29
2018-12-15T01:41:36.906Z,-943.28
2018-12-15T01:42:36.772Z,-934.57
2018-12-15T01:43:36.842Z,-938.32
2018-12-15T01:44:37.023Z,-938.61
2018-12-15T01:45:37.007Z,-935.52
2018-12-15T01:46:37.064Z,-940.41
2018-12-15T01:47:37.155Z,-942.94
2018-12-15T01:48:37.227Z,-940.31
2018-12-15T01:49:37.300Z,-938.19
2018-12-15T01:50:37.417Z,-941.13
2018-12-15T01:51:37.447Z,-936.22
2018-12-15T01:52:37.635Z,-937.75
2018-12-15T01:53:37.592Z,-931.95
2018-12-15T01:54:37.685Z,-937.29
2018-12-15T01:55:37.754Z,-936.96
2018-12-15T01:56:37.845Z,-943.52
2018-12-15T01:57:37.910Z,-937.21
2018-12-15T01:58:37.967Z,-941.20
2018-12-15T01:59:38.041Z,-937.82
2018-12-15T02:00:38.181Z,-938.56
2018-12-15T02:01:38.189Z,-941.29
2018-12-15T02:02:38.280Z,-939.46
2018-12-15T02:03:38.344Z,-935.45
2018-12-15T02:04:38.433Z,-933.81
2018-12-15T02:05:38.509Z,-935.51
2018-12-15T02:06:38.576Z,-939.47
2018-12-15T02:07:38.664Z,-933.41
2018-12-15T02:08:38.726Z,-937.29
2018-12-15T02:09:38.882Z,-940.33
2018-12-15T02:10:38.881Z,-937.72
2018-12-15T02:11:38.959Z,-935.90
2018-12-15T02:12:39.013Z,-935.81
2018-12-15T02:13:39.095Z,-938.67
2018-12-15T02:14:39.174Z,-940.32
2018-12-15T02:15:39.243Z,-948.96
2018-12-15T02:16:39.301Z,-941.00
2018-12-15T02:17:39.517Z,-940.95
2018-12-15T02:18:39.464Z,-940.07
2018-12-15T02:19:39.521Z,-935.57
2018-12-15T02:20:39.606Z,-936.84
2018-12-15T02:21:39.673Z,-938.67
2018-12-15T02:22:39.766Z,-938.73
2018-12-15T02:23:39.811Z,-942.50
2018-12-15T02:24:39.886Z,-942.71
2018-12-15T02:25:40.045Z,-942.32
2018-12-15T02:26:40.026Z,-944.39
2018-12-15T02:27:40.126Z,-942.30
2018-12-15T02:28:40.167Z,-946.68
2018-12-15T02:29:40.242Z,-949.50
2018-12-15T02:30:40.326Z,-949.10
2018-12-15T02:31:40.418Z,-942.03
2018-12-15T02:32:40.499Z,-941.85
2018-12-15T02:33:40.631Z,-941.25
2018-12-15T02:34:40.609Z,-942.02
2018-12-15T02:35:40.723Z,-940.84
2018-12-15T02:36:40.796Z,-938.10
2018-12-15T02:37:40.852Z,-940.63
2018-12-15T02:38:40.903Z,-945.33
2018-12-15T02:39:41.014Z,-943.51
2018-12-15T02:40:41.066Z,-944.43
2018-12-15T02:41:47.015Z,-948.01
2018-12-15T02:42:42.231Z,-942.89
2018-12-15T02:43:41.275Z,-941.32
2018-12-15T02:44:41.364Z,-939.44
2018-12-15T02:45:41.453Z,-944.39
2018-12-15T02:46:41.516Z,-943.64
2018-12-15T02:47:42.085Z,-940.96
2018-12-15T02:48:41.656Z,-946.43
2018-12-15T02:49:41.759Z,-944.98
2018-12-15T02:50:41.952Z,-943.74
2018-12-15T02:51:41.884Z,-941.49
2018-12-15T02:52:41.980Z,-944.15
2018-12-15T02:53:42.027Z,-941.95
2018-12-15T02:54:42.101Z,-941.11
2018-12-15T02:55:42.422Z,-948.27
2018-12-15T02:56:42.267Z,-949.82
2018-12-15T02:57:42.344Z,-946.83
2018-12-15T02:58:42.524Z,-936.76
2018-12-15T02:59:42.466Z,-941.77
2018-12-15T03:00:42.563Z,-944.83
2018-12-15T03:01:42.630Z,-947.82
2018-12-15T03:02:42.716Z,-945.26
2018-12-15T03:03:42.759Z,-944.93
2018-12-15T03:04:42.839Z,-945.37
2018-12-15T03:05:42.928Z,-944.20
2018-12-15T03:06:43.045Z,-947.26
2018-12-15T03:07:43.090Z,-942.69
2018-12-15T03:08:43.120Z,-942.73
2018-12-15T03:09:43.193Z,-938.17
2018-12-15T03:10:43.329Z,-935.96
2018-12-15T03:11:43.353Z,-941.46
2018-12-15T03:12:43.448Z,-941.02
2018-12-15T03:13:43.510Z,-946.48
2018-12-15T03:14:43.654Z,-946.22
2018-12-15T03:15:43.693Z,-944.86
2018-12-15T03:16:43.727Z,-943.21
2018-12-15T03:17:48.837Z,-942.90
2018-12-15T03:18:44.901Z,-940.40
2018-12-15T03:19:43.960Z,-937.41
2018-12-15T03:20:44.063Z,-943.04
2018-12-15T03:21:44.106Z,-940.77
2018-12-15T03:22:44.279Z,-949.39
2018-12-15T03:23:44.275Z,-945.90
2018-12-15T03:24:44.325Z,-939.29
2018-12-15T03:25:44.416Z,-943.78
2018-12-15T03:26:44.474Z,-940.36
2018-12-15T03:27:44.603Z,-942.91
2018-12-15T03:28:44.638Z,-938.97
2018-12-15T03:29:44.708Z,-944.84
2018-12-15T03:30:44.854Z,-944.83
2018-12-15T03:31:45.000Z,-942.14
2018-12-15T03:32:44.965Z,-944.91
2018-12-15T03:33:45.019Z,-944.55
2018-12-15T03:34:45.093Z,-944.18
2018-12-15T03:35:45.204Z,-940.75
2018-12-15T03:36:45.237Z,-942.24
2018-12-15T03:37:45.331Z,-943.50
2018-12-15T03:38:45.397Z,-943.84
2018-12-15T03:39:45.576Z,-940.09
2018-12-15T03:40:45.576Z,-936.61
2018-12-15T03:41:45.607Z,-943.79
2018-12-15T03:42:45.699Z,-937.24
2018-12-15T03:43:45.762Z,-939.17
2018-12-15T03:44:45.841Z,-943.50
2018-12-15T03:45:45.922Z,-945.48
2018-12-15T03:46:45.977Z,-942.17
2018-12-15T03:47:46.102Z,-940.95
2018-12-15T03:48:46.130Z,-940.92
2018-12-15T03:49:46.193Z,-939.51
2018-12-15T03:50:46.289Z,-941.92
2018-12-15T03:51:46.337Z,-934.69
2018-12-15T03:52:46.420Z,-935.47
2018-12-15T03:53:46.489Z,-940.41
2018-12-15T03:54:46.551Z,-946.48
2018-12-15T03:55:46.734Z,-939.70
2018-12-15T03:56:46.693Z,-942.87
2018-12-15T03:57:46.817Z,-940.44
2018-12-15T03:58:46.872Z,-938.97
2018-12-15T03:59:46.927Z,-941.23
2018-12-15T04:00:47.038Z,-934.57
2018-12-15T04:01:47.089Z,-940.07
2018-12-15T04:02:47.165Z,-942.53
2018-12-15T04:03:47.245Z,-941.30
2018-12-15T04:04:47.408Z,-949.29
2018-12-15T04:05:47.409Z,-943.11
2018-12-15T04:06:47.459Z,-944.13
2018-12-15T04:07:47.540Z,-942.70
2018-12-15T04:08:47.591Z,-937.71
2018-12-15T04:09:47.896Z,-937.70
2018-12-15T04:10:47.783Z,-936.87
2018-12-15T04:11:47.832Z,-933.98
2018-12-15T04:12:48.044Z,-939.18
2018-12-15T04:13:47.986Z,-938.35
2018-12-15T04:14:48.048Z,-935.85
2018-12-15T04:15:48.167Z,-940.39
2018-12-15T04:16:48.213Z,-944.13
2018-12-15T04:17:48.434Z,-938.81
2018-12-15T04:18:48.399Z,-936.96
2018-12-15T04:19:48.461Z,-938.00
2018-12-15T04:20:48.625Z,-936.96
2018-12-15T04:21:48.595Z,-937.28
2018-12-15T04:22:48.689Z,-935.20
2018-12-15T04:23:48.765Z,-931.93
2018-12-15T04:24:48.819Z,-936.89
2018-12-15T04:25:48.939Z,-938.79
2018-12-15T04:26:48.970Z,-933.63
2018-12-15T04:27:49.078Z,-927.95
2018-12-15T04:28:49.152Z,-926.70
2018-12-15T04:29:49.189Z,-926.34
2018-12-15T04:30:49.302Z,-934.34
2018-12-15T04:31:49.333Z,-933.88
2018-12-15T04:32:49.424Z,-932.22
2018-12-15T04:33:49.477Z,-933.40
2018-12-15T04:34:49.565Z,-933.27
2018-12-15T04:35:49.695Z,-932.24
2018-12-15T04:36:49.773Z,-929.27
2018-12-15T04:37:49.847Z,-931.61
2018-12-15T04:38:49.860Z,-936.96
2018-12-15T04:39:49.933Z,-936.19
2018-12-15T04:40:50.068Z,-938.25
2018-12-15T04:41:50.106Z,-932.31
2018-12-15T04:42:50.177Z,-933.40
2018-12-15T04:43:50.234Z,-936.16
2018-12-15T04:44:50.343Z,-936.12
2018-12-15T04:45:50.551Z,-939.30
2018-12-15T04:46:50.498Z,-935.88
2018-12-15T04:47:50.564Z,-936.77
2018-12-15T04:48:50.622Z,-933.75
2018-12-15T04:49:50.718Z,-932.68
2018-12-15T04:50:50.811Z,-931.41
2018-12-15T04:51:50.877Z,-931.28
2018-12-15T04:52:50.949Z,-941.36
2018-12-15T04:53:51.138Z,-940.68
2018-12-15T04:54:51.123Z,-934.69
2018-12-15T04:55:51.194Z,-934.90
2018-12-15T04:56:51.275Z,-932.70
2018-12-15T04:57:51.348Z,-921.33
2018-12-15T04:58:51.421Z,-930.27
2018-12-15T04:59:51.500Z,-921.86
2018-12-15T05:00:51.585Z,-921.80
2018-12-15T05:01:51.730Z,-923.06
2018-12-15T05:02:51.735Z,-923.76
2018-12-15T05:03:51.779Z,-929.39
2018-12-15T05:04:51.881Z,-926.45
2018-12-15T05:05:51.948Z,-928.25
2018-12-15T05:06:52.044Z,-931.66
2018-12-15T05:07:52.099Z,-938.56
2018-12-15T05:08:52.151Z,-937.17
2018-12-15T05:09:52.350Z,-932.13
2018-12-15T05:10:52.310Z,-934.89
2018-12-15T05:11:52.380Z,-932.05
2018-12-15T05:12:52.449Z,-928.08
2018-12-15T05:13:52.513Z,-925.90
2018-12-15T05:14:52.608Z,-933.04
2018-12-15T05:15:52.678Z,-932.99
2018-12-15T05:16:52.763Z,-931.06
2018-12-15T05:17:52.907Z,-921.58
2018-12-15T05:18:53.160Z,-920.42
2018-12-15T05:19:52.953Z,-920.65
2018-12-15T05:20:53.027Z,-923.01
2018-12-15T05:21:53.089Z,-931.74
2018-12-15T05:22:53.401Z,-929.11
2018-12-15T05:23:53.244Z,-919.33
2018-12-15T05:24:53.318Z,-917.20
2018-12-15T05:25:53.415Z,-922.34
2018-12-15T05:26:53.566Z,-922.53
2018-12-15T05:27:53.549Z,-928.00
2018-12-15T05:28:53.623Z,-922.52
2018-12-15T05:29:53.671Z,-924.45
2018-12-15T05:30:53.762Z,-916.14
2018-12-15T05:31:53.847Z,-921.40
2018-12-15T05:32:53.934Z,-921.05
2018-12-15T05:33:53.969Z,-923.18
2018-12-15T05:34:54.126Z,-926.16
2018-12-15T05:35:54.124Z,-930.83
2018-12-15T05:36:54.209Z,-925.55
2018-12-15T05:37:54.285Z,-927.85
2018-12-15T05:38:54.328Z,-931.09
2018-12-15T05:39:54.414Z,-925.80
2018-12-15T05:40:54.503Z,-925.15
2018-12-15T05:41:54.601Z,-929.32
2018-12-15T05:42:54.718Z,-925.39
2018-12-15T05:43:54.704Z,-930.98
2018-12-15T05:44:54.784Z,-932.32
2018-12-15T05:45:54.892Z,-930.44
2018-12-15T05:46:54.954Z,-930.35
2018-12-15T05:47:55.020Z,-930.05
2018-12-15T05:48:55.076Z,-931.41
2018-12-15T05:49:55.158Z,-933.89
2018-12-15T05:50:55.310Z,-931.89
2018-12-15T05:51:55.326Z,-931.62
2018-12-15T05:52:55.404Z,-930.51
2018-12-15T05:53:55.480Z,-934.11
2018-12-15T05:54:55.532Z,-929.55
2018-12-15T05:55:55.625Z,-936.18
2018-12-15T05:56:55.695Z,-931.93
2018-12-15T05:57:55.786Z,-931.39
2018-12-15T05:58:55.839Z,-928.89
2018-12-15T05:59:56.003Z,-927.03
2018-12-15T06:00:55.984Z,-929.71
2018-12-15T06:01:56.051Z,-928.40
2018-12-15T06:02:56.150Z,-933.35
2018-12-15T06:03:56.185Z,-933.00
2018-12-15T06:04:56.260Z,-930.19
2018-12-15T06:05:56.352Z,-925.54
2018-12-15T06:06:56.456Z,-929.41
2018-12-15T06:07:56.621Z,-928.91
2018-12-15T06:08:56.556Z,-925.33
2018-12-15T06:09:56.643Z,-927.62
2018-12-15T06:10:56.726Z,-933.20
2018-12-15T06:11:56.834Z,-927.21
2018-12-15T06:12:56.872Z,-927.59
2018-12-15T06:13:56.926Z,-930.80
2018-12-15T06:14:56.997Z,-931.02
2018-12-15T06:15:57.175Z,-932.69
2018-12-15T06:16:57.176Z,-934.18
2018-12-15T06:17:57.232Z,-925.51
2018-12-15T06:18:57.297Z,-929.54
2018-12-15T06:19:57.364Z,-931.87
2018-12-15T06:20:57.475Z,-924.51
2018-12-15T06:21:57.561Z,-933.80
2018-12-15T06:22:57.621Z,-927.88
2018-12-15T06:23:57.736Z,-933.63
2018-12-15T06:24:57.749Z,-926.37
2018-12-15T06:25:57.825Z,-925.80
2018-12-15T06:26:57.919Z,-928.81
2018-12-15T06:27:57.972Z,-923.94
2018-12-15T06:28:58.050Z,-925.48
2018-12-15T06:29:58.107Z,-931.34
2018-12-15T06:30:58.201Z,-932.32
2018-12-15T06:31:58.304Z,-930.54
2018-12-15T06:32:58.375Z,-920.78
2018-12-15T06:33:58.420Z,-924.39
2018-12-15T06:34:58.473Z,-926.92
2018-12-15T06:35:58.564Z,-926.95
2018-12-15T06:36:58.632Z,-928.73
2018-12-15T06:38:04.369Z,-919.64
2018-12-15T06:38:58.769Z,-927.03
2018-12-15T06:39:59.347Z,-925.35
2018-12-15T06:40:59.472Z,-925.97
2018-12-15T06:41:59.018Z,-926.32
2018-12-15T06:42:59.103Z,-931.46
2018-12-15T06:43:59.202Z,-931.31
2018-12-15T06:44:59.228Z,-929.43
2018-12-15T06:45:59.341Z,-929.77
2018-12-15T06:46:59.383Z,-927.71
2018-12-15T06:47:59.489Z,-930.99
2018-12-15T06:48:59.646Z,-925.44
2018-12-15T06:49:59.611Z,-928.93
2018-12-15T06:51:00.102Z,-926.15
2018-12-15T06:51:59.788Z,-926.49
2018-12-15T06:52:59.918Z,-929.23
2018-12-15T06:53:59.925Z,-926.29
2018-12-15T06:55:00.015Z,-928.13
2018-12-15T06:56:00.066Z,-927.97
2018-12-15T06:57:00.183Z,-929.95
2018-12-15T06:58:00.861Z,-928.68
2018-12-15T06:59:00.277Z,-927.95
2018-12-15T07:00:00.362Z,-932.60
2018-12-15T07:01:00.433Z,-933.57
2018-12-15T07:02:00.488Z,-931.58
2018-12-15T07:03:00.630Z,-935.41
2018-12-15T07:04:00.643Z,-930.36
2018-12-15T07:05:00.761Z,-931.44
2018-12-15T07:06:01.349Z,-933.63
2018-12-15T07:07:00.850Z,-922.26
2018-12-15T07:08:00.969Z,-925.20
2018-12-15T07:09:01.013Z,-928.44
2018-12-15T07:10:01.097Z,-924.01
2018-12-15T07:11:01.160Z,-924.65
2018-12-15T07:12:01.272Z,-924.28
2018-12-15T07:13:01.402Z,-928.56
2018-12-15T07:14:01.444Z,-928.89
2018-12-15T07:15:01.472Z,-925.65
2018-12-15T07:16:01.533Z,-921.97
2018-12-15T07:17:01.627Z,-931.59
2018-12-15T07:18:01.734Z,-924.90
2018-12-15T07:19:02.359Z,-918.56
2018-12-15T07:20:01.845Z,-928.52
2018-12-15T07:21:01.919Z,-924.48
2018-12-15T07:22:02.086Z,-921.01
2018-12-15T07:23:02.858Z,-927.57
2018-12-15T07:24:02.196Z,-923.90
2018-12-15T07:25:02.212Z,-926.02
2018-12-15T07:26:02.314Z,-926.43
2018-12-15T07:27:02.342Z,-930.33
2018-12-15T07:28:02.464Z,-929.05
2018-12-15T07:29:02.497Z,-927.17
2018-12-15T07:30:02.671Z,-928.88
2018-12-15T07:31:02.632Z,-920.39
2018-12-15T07:32:02.709Z,-928.68
2018-12-15T07:33:02.829Z,-928.50
2018-12-15T07:34:02.868Z,-919.55
2018-12-15T07:35:02.947Z,-923.50
2018-12-15T07:36:03.004Z,-926.50
2018-12-15T07:37:03.075Z,-921.69
2018-12-15T07:38:03.214Z,-925.72
2018-12-15T07:39:03.222Z,-921.34
2018-12-15T07:40:03.334Z,-924.85
2018-12-15T07:41:03.369Z,-927.93
2018-12-15T07:42:03.451Z,-929.01
2018-12-15T07:43:03.580Z,-926.82
2018-12-15T07:44:03.619Z,-922.27
2018-12-15T07:45:03.697Z,-925.47
2018-12-15T07:46:03.809Z,-925.77
2018-12-15T07:47:03.826Z,-924.55
2018-12-15T07:48:03.940Z,-928.15
2018-12-15T07:49:03.973Z,-921.96
2018-12-15T07:50:04.073Z,-924.36
2018-12-15T07:51:04.140Z,-916.83
2018-12-15T07:52:04.196Z,-917.28
2018-12-15T07:53:04.533Z,-920.50
2018-12-15T07:54:04.377Z,-920.99
2018-12-15T07:55:04.521Z,-918.06
2018-12-15T07:56:04.508Z,-916.00
2018-12-15T07:57:04.577Z,-926.45
2018-12-15T07:58:04.668Z,-926.67
2018-12-15T07:59:04.725Z,-923.35
2018-12-15T08:00:04.863Z,-927.10
2018-12-15T08:01:04.886Z,-932.93
2018-12-15T08:02:04.963Z,-928.62
2018-12-15T08:03:05.186Z,-932.30
2018-12-15T08:04:05.104Z,-941.00
2018-12-15T08:05:05.224Z,-935.80
2018-12-15T08:06:05.263Z,-934.36
2018-12-15T08:07:05.345Z,-933.31
2018-12-15T08:08:05.436Z,-939.93
2018-12-15T08:09:05.512Z,-929.63
2018-12-15T08:10:05.607Z,-932.31
2018-12-15T08:11:05.708Z,-933.38
2018-12-15T08:12:05.711Z,-934.47
2018-12-15T08:13:05.812Z,-940.15
2018-12-15T08:14:05.868Z,-929.96
2018-12-15T08:15:05.963Z,-928.05
2018-12-15T08:16:06.020Z,-930.83
2018-12-15T08:17:06.105Z,-929.95
2018-12-15T08:18:06.181Z,-930.78
2018-12-15T08:19:06.270Z,-929.53
2018-12-15T08:20:06.344Z,-932.64
2018-12-15T08:21:06.374Z,-928.61
2018-12-15T08:22:06.462Z,-935.38
2018-12-15T08:23:06.558Z,-935.09
2018-12-15T08:24:06.612Z,-936.97
2018-12-15T08:25:06.720Z,-932.96
2018-12-15T08:26:06.762Z,-930.23
2018-12-15T08:27:06.898Z,-931.15
2018-12-15T08:28:06.997Z,-930.06
2018-12-15T08:29:06.990Z,-933.49
2018-12-15T08:30:07.123Z,-928.19
2018-12-15T08:31:07.137Z,-934.39
2018-12-15T08:32:07.211Z,-929.44
2018-12-15T08:33:07.320Z,-924.78
2018-12-15T08:34:07.365Z,-926.00
2018-12-15T08:35:07.471Z,-928.80
2018-12-15T08:36:07.635Z,-921.00
2018-12-15T08:37:07.584Z,-929.66
2018-12-15T08:38:07.722Z,-931.77
2018-12-15T08:39:07.746Z,-929.76
2018-12-15T08:40:07.818Z,-931.86
2018-12-15T08:41:07.880Z,-928.85
2018-12-15T08:42:07.943Z,-924.25
2018-12-15T08:43:08.079Z,-932.48
2018-12-15T08:44:08.181Z,-927.77
2018-12-15T08:45:08.189Z,-931.45
2018-12-15T08:46:08.242Z,-934.04
2018-12-15T08:47:08.329Z,-925.69
2018-12-15T08:48:08.461Z,-924.62
2018-12-15T08:49:08.472Z,-929.77
2018-12-15T08:50:08.566Z,-931.69
2018-12-15T08:51:09.355Z,-931.04
2018-12-15T08:52:08.757Z,-930.92
2018-12-15T08:53:08.795Z,-933.15
2018-12-15T08:54:08.852Z,-933.00
2018-12-15T08:55:08.936Z,-930.35
2018-12-15T08:56:09.008Z,-926.97
2018-12-15T08:57:09.068Z,-922.83
2018-12-15T08:58:09.159Z,-931.82
2018-12-15T08:59:09.221Z,-928.30
2018-12-15T09:00:09.371Z,-928.38
2018-12-15T09:01:09.382Z,-928.73
2018-12-15T09:02:09.452Z,-929.72
2018-12-15T09:03:09.550Z,-934.07
2018-12-15T09:04:09.588Z,-930.33
2018-12-15T09:05:09.701Z,-928.78
2018-12-15T09:06:09.761Z,-928.49
2018-12-15T09:07:10.065Z,-932.96
2018-12-15T09:08:09.981Z,-931.93
2018-12-15T09:09:10.029Z,-922.26
2018-12-15T09:10:10.085Z,-927.46
2018-12-15T09:11:10.142Z,-925.31
2018-12-15T09:12:10.214Z,-931.85
2018-12-15T09:13:10.340Z,-922.55
2018-12-15T09:14:10.362Z,-929.08
2018-12-15T09:15:10.455Z,-928.03
2018-12-15T09:16:10.518Z,-923.24
2018-12-15T09:17:10.696Z,-934.76
2018-12-15T09:18:10.716Z,-930.33
2018-12-15T09:19:11.422Z,-925.40
2018-12-15T09:20:10.838Z,-933.62
2018-12-15T09:21:10.894Z,-935.61
2018-12-15T09:22:11.518Z,-927.41
2018-12-15T09:23:11.089Z,-932.45
2018-12-15T09:24:11.132Z,-930.84
2018-12-15T09:25:11.313Z,-926.72
2018-12-15T09:26:11.259Z,-930.19
2018-12-15T09:27:11.354Z,-929.91
2018-12-15T09:28:11.462Z,-925.48
2018-12-15T09:29:11.485Z,-934.74
2018-12-15T09:30:11.581Z,-931.21
2018-12-15T09:31:11.644Z,-926.87
2018-12-15T09:32:11.702Z,-933.72
2018-12-15T09:33:11.871Z,-928.70
2018-12-15T09:34:11.826Z,-932.28
2018-12-15T09:35:11.943Z,-929.48
2018-12-15T09:36:11.994Z,-899.67
2018-12-15T09:37:12.053Z,-926.43
2018-12-15T09:38:12.184Z,-931.10
2018-12-15T09:39:12.210Z,-933.34
2018-12-15T09:40:12.286Z,-935.78
2018-12-15T09:41:12.396Z,-932.38
2018-12-15T09:42:12.413Z,-934.73
2018-12-15T09:43:12.539Z,-935.67
2018-12-15T09:44:12.560Z,-926.76
2018-12-15T09:45:12.659Z,-929.62
2018-12-15T09:46:12.715Z,-936.32
2018-12-15T09:47:12.789Z,-933.11
2018-12-15T09:48:12.896Z,-933.22
2018-12-15T09:49:17.684Z,-934.29
2018-12-15T09:50:14.878Z,-931.32
2018-12-15T09:51:13.082Z,-933.48
2018-12-15T09:52:13.154Z,-927.36
2018-12-15T09:53:13.858Z,-937.05
2018-12-15T09:54:13.858Z,-927.02
2018-12-15T09:55:13.391Z,-932.42
2018-12-15T09:56:13.467Z,-928.26
2018-12-15T09:57:13.520Z,-923.46
2018-12-15T09:58:13.764Z,-925.80
2018-12-15T09:59:13.667Z,-925.71
2018-12-15T10:00:13.756Z,-930.67
2018-12-15T10:01:14.370Z,-923.11
2018-12-15T10:02:13.891Z,-928.36
2018-12-15T10:03:14.377Z,-930.09
2018-12-15T10:04:14.051Z,-927.84
2018-12-15T10:05:14.142Z,-926.43
2018-12-15T10:06:14.255Z,-928.28
2018-12-15T10:07:14.242Z,-929.55
2018-12-15T10:08:14.371Z,-928.68
2018-12-15T10:09:14.393Z,-929.67
2018-12-15T10:10:14.502Z,-933.67
2018-12-15T10:11:14.560Z,-930.00
2018-12-15T10:12:14.629Z,-933.62
2018-12-15T10:13:14.926Z,-930.89
2018-12-15T10:14:14.834Z,-933.97
2018-12-15T10:15:14.866Z,-929.22
2018-12-15T10:16:14.934Z,-920.44
2018-12-15T10:17:15.002Z,-926.77
2018-12-15T10:18:15.116Z,-931.13
2018-12-15T10:19:15.160Z,-930.14
2018-12-15T10:20:15.240Z,-934.21
2018-12-15T10:21:15.306Z,-932.23
2018-12-15T10:22:15.681Z,-931.16
2018-12-15T10:23:15.525Z,-928.42
2018-12-15T10:24:15.535Z,-929.19
2018-12-15T10:25:15.618Z,-928.20
2018-12-15T10:26:15.705Z,-927.55
2018-12-15T10:27:15.758Z,-928.86
2018-12-15T10:28:15.849Z,-930.83
2018-12-15T10:29:15.928Z,-933.12
2018-12-15T10:30:16.009Z,-929.33
2018-12-15T10:31:16.168Z,-930.93
2018-12-15T10:32:16.144Z,-926.97
2018-12-15T10:33:16.228Z,-922.46
2018-12-15T10:34:16.299Z,-921.58
2018-12-15T10:35:16.368Z,-926.69
2018-12-15T10:36:16.433Z,-926.97
2018-12-15T10:37:16.506Z,-918.52
2018-12-15T10:38:16.602Z,-922.12
2018-12-15T10:39:16.796Z,-926.72
2018-12-15T10:40:16.741Z,-924.13
2018-12-15T10:41:16.816Z,-931.33
2018-12-15T10:42:16.890Z,-931.11
2018-12-15T10:43:16.980Z,-927.63
2018-12-15T10:44:17.073Z,-923.94
2018-12-15T10:45:17.120Z,-952.71
2018-12-15T10:46:17.191Z,-950.37
2018-12-15T10:47:17.298Z,-986.39
2018-12-15T10:48:17.355Z,-979.13
2018-12-15T10:49:17.439Z,-976.49
2018-12-15T10:50:17.486Z,-991.17
2018-12-15T10:51:17.545Z,-984.34
2018-12-15T10:52:17.618Z,-976.26
2018-12-15T10:53:17.725Z,-979.57
2018-12-15T10:54:17.848Z,-977.11
2018-12-15T10:55:17.918Z,-980.68
2018-12-15T10:56:17.902Z,-974.26
2018-12-15T10:57:17.998Z,-976.48
2018-12-15T10:58:18.084Z,-974.32
2018-12-15T10:59:18.157Z,-976.17
2018-12-15T11:00:18.237Z,-977.53
2018-12-15T11:01:18.307Z,-972.98
2018-12-15T11:02:18.363Z,-983.99
2018-12-15T11:03:18.492Z,-979.48
2018-12-15T11:04:18.562Z,-978.34
2018-12-15T11:05:18.612Z,-986.23
2018-12-15T11:06:18.667Z,-979.59
2018-12-15T11:07:18.725Z,-984.16
2018-12-15T11:08:18.833Z,-985.72
2018-12-15T11:09:18.898Z,-984.54
2018-12-15T11:10:18.980Z,-945.20
2018-12-15T11:11:19.029Z,-953.86
2018-12-15T11:12:19.273Z,-950.95
2018-12-15T11:13:19.185Z,-952.22
2018-12-15T11:14:19.252Z,-979.24
2018-12-15T11:15:19.337Z,-976.73
2018-12-15T11:16:19.375Z,-975.71
2018-12-15T11:17:19.448Z,-981.29
2018-12-15T11:18:19.546Z,-978.69
2018-12-15T11:19:19.629Z,-978.69
2018-12-15T11:20:19.790Z,-973.50
2018-12-15T11:21:19.734Z,-978.49
2018-12-15T11:22:19.814Z,-978.38
2018-12-15T11:23:19.895Z,-982.87
2018-12-15T11:24:19.975Z,-980.81
2018-12-15T11:25:20.094Z,-983.84
2018-12-15T11:26:20.124Z,-982.32
2018-12-15T11:27:20.203Z,-979.56
2018-12-15T11:28:20.352Z,-980.54
2018-12-15T11:29:20.370Z,-981.06
2018-12-15T11:30:20.443Z,-976.59
2018-12-15T11:31:20.496Z,-985.21
2018-12-15T11:32:20.602Z,-980.76
2018-12-15T11:33:20.671Z,-984.91
2018-12-15T11:34:20.740Z,-982.57
2018-12-15T11:35:21.059Z,-985.29
2018-12-15T11:36:20.905Z,-980.91
2018-12-15T11:37:20.949Z,-977.99
2018-12-15T11:38:21.041Z,-976.56
2018-12-15T11:39:21.131Z,-978.02
2018-12-15T11:40:21.209Z,-971.70
2018-12-15T11:41:21.245Z,-970.01
2018-12-15T11:42:21.317Z,-973.12
2018-12-15T11:43:21.412Z,-978.87
2018-12-15T11:44:21.509Z,-974.17
2018-12-15T11:45:21.627Z,-978.65
2018-12-15T11:46:21.612Z,-974.27
2018-12-15T11:47:22.367Z,-974.05
2018-12-15T11:48:21.783Z,-975.38
2018-12-15T11:49:21.875Z,-979.17
2018-12-15T11:50:21.924Z,-975.54
2018-12-15T11:51:21.981Z,-984.26
2018-12-15T11:52:22.050Z,-983.44
2018-12-15T11:53:22.276Z,-982.78
2018-12-15T11:54:22.236Z,-979.95
2018-12-15T11:55:22.301Z,-978.20
2018-12-15T11:56:22.376Z,-966.32
2018-12-15T11:57:22.434Z,-925.29
2018-12-15T11:58:22.549Z,-924.92
2018-12-15T11:59:22.604Z,-920.45
2018-12-15T12:00:22.672Z,-924.76
2018-12-15T12:01:22.811Z,-926.59
2018-12-15T12:02:22.802Z,-925.99
2018-12-15T12:03:23.366Z,-931.08
2018-12-15T12:04:22.965Z,-929.36
2018-12-15T12:05:23.047Z,-932.68
2018-12-15T12:06:23.118Z,-932.59